Corinth, Louisiana
Current Conditions -  °F | °C
As of 5:55 AM on Monday 22 Dec 2014 (Local Time) from KRSN Reporting Station
Haze Haze  
Wind Chill: 51°   Ceiling: 300
Heat Index: 51°   Visibility: 4mi
Dew Point: 51°   Wind: 9mph
Humidity: 100%   Direction: 180°S
Pressure: 29.82"   Gusts: NA
Location:  32.6988°N, 92.6981°W
Report Text: KRSN 221155Z AUTO 18008KT 4SM BR OVC003 11/11 A2982 RMK AO2 T01080108 10108 20092
Loading
Personal Weather Stations






























Interactive Weather Map New forecast layout! Learn more

10-Day Weather Forecast

Advertisements
Track Severe Weather on mobile